Time;durP1;ratioP1;P1;durP2;ratioP2;P2;SDS_P1;SDS_P2;PMS_P1;PMS_P2;Temp;Humidity;BMP_temperature;BMP_pressure;BME280_temperature;BME280_humidity;BME280_pressure;Samples;Min_cycle;Max_cycle;Signal;HPM_P1;HPM_P2
2024/03/26 00:01:56;;;;;;;76.22;11.82;;;12.40;78.40;;;;;;5064595;28;20035;-57
2024/03/26 00:04:22;;;;;;;69.05;11.43;;;12.40;78.40;;;;;;5047993;28;20044;-58
2024/03/26 00:06:47;;;;;;;69.10;11.27;;;12.30;78.40;;;;;;5048026;28;20021;-57
2024/03/26 00:09:13;;;;;;;70.20;11.63;;;12.40;78.50;;;;;;5064443;28;20036;-57
2024/03/26 00:11:38;;;;;;;79.10;12.45;;;12.30;78.50;;;;;;5047863;28;20033;-58
2024/03/26 00:14:04;;;;;;;56.60;10.23;;;12.30;78.40;;;;;;5065783;28;20052;-57
2024/03/26 00:16:30;;;;;;;68.45;12.25;;;12.30;78.50;;;;;;5064223;28;20021;-58
2024/03/26 00:18:55;;;;;;;64.50;12.10;;;12.30;78.60;;;;;;5065749;28;20046;-57
2024/03/26 00:21:21;;;;;;;65.55;9.98;;;12.30;78.80;;;;;;5064256;28;20029;-57
2024/03/26 00:23:47;;;;;;;68.00;10.93;;;12.30;78.80;;;;;;5064228;28;20017;-58
2024/03/26 00:26:12;;;;;;;65.50;10.48;;;12.20;78.80;;;;;;5065648;28;20021;-57
2024/03/26 00:28:38;;;;;;;73.40;10.75;;;12.20;78.90;;;;;;5064027;28;20021;-57
2024/03/26 00:31:03;;;;;;;62.03;10.38;;;12.10;78.80;;;;;;5063972;28;20064;-57
2024/03/26 00:33:29;;;;;;;57.47;10.88;;;12.10;78.70;;;;;;5047382;28;20037;-57
2024/03/26 00:35:54;;;;;;;60.33;9.63;;;12.10;78.90;;;;;;5063838;28;20055;-58
2024/03/26 00:38:20;;;;;;;63.35;9.38;;;12.10;78.90;;;;;;5064099;28;20033;-57
2024/03/26 00:40:46;;;;;;;61.40;9.40;;;12.10;79.10;;;;;;5063701;28;20055;-60
2024/03/26 00:43:11;;;;;;;48.95;9.25;;;12.10;79.00;;;;;;5065220;28;20066;-58
2024/03/26 00:45:37;;;;;;;51.67;10.07;;;12.10;79.00;;;;;;5063220;28;20043;-58
2024/03/26 00:48:02;;;;;;;46.65;8.80;;;12.00;79.00;;;;;;5063743;28;20138;-57
2024/03/26 00:50:28;;;;;;;51.22;8.82;;;12.00;79.00;;;;;;5063626;28;20345;-57
2024/03/26 00:52:54;;;;;;;40.05;9.05;;;12.00;79.20;;;;;;5065305;28;20469;-58
2024/03/26 00:55:19;;;;;;;40.83;8.35;;;12.00;79.10;;;;;;5063794;28;20067;-57
2024/03/26 00:57:46;;;;;;;50.20;8.18;;;11.90;79.30;;;;;;5065098;28;20051;-58
2024/03/26 01:00:13;;;;;;;44.28;8.18;;;11.90;79.40;;;;;;5063576;28;20123;-57
2024/03/26 01:02:39;;;;;;;52.88;8.88;;;11.90;79.50;;;;;;5063652;28;20024;-58
2024/03/26 01:05:05;;;;;;;49.72;8.43;;;11.80;79.30;;;;;;5065052;28;20108;-57
2024/03/26 01:07:31;;;;;;;45.60;8.70;;;11.80;79.50;;;;;;5063209;28;20021;-57
2024/03/26 01:09:56;;;;;;;38.03;8.35;;;11.80;79.50;;;;;;5063140;28;20427;-57
2024/03/26 01:12:22;;;;;;;43.58;8.27;;;11.80;79.70;;;;;;5064701;28;20025;-58
2024/03/26 01:14:48;;;;;;;38.95;8.30;;;11.80;79.70;;;;;;5063010;28;20059;-57
2024/03/26 01:17:14;;;;;;;35.22;7.80;;;11.70;79.80;;;;;;5046506;28;20087;-58
2024/03/26 01:19:39;;;;;;;42.42;7.80;;;11.70;79.80;;;;;;5063183;28;20457;-58
2024/03/26 01:22:05;;;;;;;49.42;7.63;;;11.70;79.80;;;;;;5064396;28;20025;-57
2024/03/26 01:24:31;;;;;;;44.95;7.45;;;11.70;79.60;;;;;;5046742;28;20075;-58
2024/03/26 01:26:56;;;;;;;38.42;7.57;;;11.70;79.90;;;;;;5064829;28;20097;-57
2024/03/26 01:29:22;;;;;;;44.22;7.15;;;11.60;79.90;;;;;;5063019;28;20033;-58
2024/03/26 01:31:47;;;;;;;41.45;8.05;;;11.60;79.90;;;;;;5063000;28;20075;-57
2024/03/26 01:34:19;;;;;;;39.45;7.68;;;11.60;79.90;;;;;;5046451;28;20048;-57
2024/03/26 01:36:45;;;;;;;31.88;7.00;;;11.60;80.00;;;;;;5062986;28;20025;-57
2024/03/26 01:39:15;;;;;;;31.85;7.07;;;11.60;79.90;;;;;;5062713;28;20041;-58
2024/03/26 01:41:41;;;;;;;42.60;8.45;;;11.60;79.90;;;;;;5059102;28;20329;-58
2024/03/26 01:44:07;;;;;;;30.50;6.65;;;11.60;80.00;;;;;;5046589;28;20041;-58
2024/03/26 01:46:33;;;;;;;42.75;8.77;;;11.50;80.00;;;;;;5053996;28;20111;-58
2024/03/26 01:48:58;;;;;;;37.88;6.53;;;11.50;80.00;;;;;;5062795;28;20028;-57
2024/03/26 01:51:24;;;;;;;38.20;6.57;;;11.50;80.10;;;;;;5061768;28;20024;-57
2024/03/26 01:53:49;;;;;;;38.42;5.97;;;11.50;80.10;;;;;;5029698;28;20105;-58
2024/03/26 01:56:16;;;;;;;33.28;6.75;;;11.40;80.10;;;;;;5064217;28;20097;-58
2024/03/26 01:58:42;;;;;;;27.05;6.70;;;11.40;80.10;;;;;;5050280;28;20464;-57
2024/03/26 02:01:07;;;;;;;34.58;6.53;;;11.40;80.30;;;;;;5052279;28;20042;-58
2024/03/26 02:03:33;;;;;;;30.08;7.13;;;11.40;80.10;;;;;;5047093;28;20056;-57
2024/03/26 02:05:58;;;;;;;33.25;6.63;;;11.40;80.30;;;;;;5030176;28;20033;-57
2024/03/26 02:08:24;;;;;;;35.10;6.30;;;11.40;80.40;;;;;;5046783;28;20052;-58
2024/03/26 02:10:50;;;;;;;32.25;6.65;;;11.30;80.30;;;;;;5046692;28;20029;-58
2024/03/26 02:13:15;;;;;;;31.05;5.85;;;11.30;80.30;;;;;;5063821;28;20384;-58
2024/03/26 02:15:41;;;;;;;27.23;5.53;;;11.30;80.50;;;;;;5063235;28;20083;-57
2024/03/26 02:18:07;;;;;;;30.50;5.88;;;11.30;80.50;;;;;;5063452;28;20040;-57
2024/03/26 02:20:32;;;;;;;29.20;5.60;;;11.30;80.50;;;;;;5062501;28;20052;-57
2024/03/26 02:22:58;;;;;;;29.08;5.22;;;11.30;80.60;;;;;;5046579;28;20052;-57
2024/03/26 02:25:23;;;;;;;32.03;5.90;;;11.30;80.60;;;;;;5046461;28;20224;-58
2024/03/26 02:27:49;;;;;;;31.52;5.78;;;11.20;80.40;;;;;;5046590;28;20069;-57
2024/03/26 02:30:15;;;;;;;29.10;5.22;;;11.20;80.60;;;;;;5046287;28;20075;-57
2024/03/26 02:32:40;;;;;;;23.15;5.63;;;11.20;80.40;;;;;;5046334;28;20368;-57
2024/03/26 02:35:07;;;;;;;30.40;5.97;;;11.20;80.40;;;;;;5046274;28;20195;-57
2024/03/26 02:37:32;;;;;;;20.15;5.57;;;11.20;80.70;;;;;;5046249;28;20036;-57
2024/03/26 02:39:58;;;;;;;21.73;5.47;;;11.10;80.70;;;;;;5045800;28;20037;-57
2024/03/26 02:42:24;;;;;;;21.08;5.13;;;11.10;80.80;;;;;;5046076;28;20044;-57
2024/03/26 02:44:49;;;;;;;19.67;4.95;;;11.10;80.70;;;;;;5046091;28;20124;-57
2024/03/26 02:47:15;;;;;;;23.23;4.90;;;11.10;80.70;;;;;;5046091;28;20067;-58
2024/03/26 02:49:40;;;;;;;30.40;5.15;;;11.10;80.90;;;;;;5047454;28;20121;-57
2024/03/26 02:52:06;;;;;;;20.20;4.68;;;11.10;80.80;;;;;;5045962;28;20032;-57
2024/03/26 02:54:32;;;;;;;19.52;4.78;;;11.00;80.70;;;;;;5045881;28;20453;-57
2024/03/26 02:56:57;;;;;;;21.90;4.90;;;11.00;80.80;;;;;;5045953;28;20097;-57
2024/03/26 02:59:23;;;;;;;23.10;5.20;;;11.00;80.90;;;;;;5045839;28;20033;-57
2024/03/26 03:01:48;;;;;;;20.40;4.28;;;11.00;80.90;;;;;;5045836;28;20029;-57
2024/03/26 03:04:14;;;;;;;20.67;6.43;;;11.00;81.00;;;;;;5045644;28;20034;-58
2024/03/26 03:06:39;;;;;;;18.55;4.78;;;10.90;81.00;;;;;;5045613;28;20040;-59
2024/03/26 03:09:06;;;;;;;16.40;4.28;;;10.90;81.00;;;;;;5045015;28;20101;-59
2024/03/26 03:11:32;;;;;;;24.15;4.70;;;10.90;81.00;;;;;;5029158;28;20037;-59
2024/03/26 03:13:58;;;;;;;17.70;4.40;;;10.90;81.00;;;;;;5045434;28;20101;-59
2024/03/26 03:16:23;;;;;;;13.90;4.47;;;10.90;81.20;;;;;;5045799;28;20437;-59
2024/03/26 03:18:49;;;;;;;21.02;4.30;;;10.90;81.20;;;;;;5045579;28;20026;-59
2024/03/26 03:21:15;;;;;;;12.20;3.85;;;10.80;81.30;;;;;;5045532;28;20033;-59
2024/03/26 03:23:40;;;;;;;23.05;4.28;;;10.90;81.20;;;;;;5046786;28;20048;-59
2024/03/26 03:26:06;;;;;;;15.75;4.57;;;10.80;81.10;;;;;;5045409;28;20059;-59
2024/03/26 03:28:31;;;;;;;19.15;4.25;;;10.80;81.20;;;;;;5045499;28;20017;-59
2024/03/26 03:30:57;;;;;;;20.02;4.13;;;10.80;81.20;;;;;;5045197;28;20044;-59
2024/03/26 03:33:23;;;;;;;21.80;4.38;;;10.80;81.40;;;;;;5045285;28;20094;-59
2024/03/26 03:35:51;;;;;;;22.23;4.35;;;10.80;81.30;;;;;;5046491;28;20490;-59
2024/03/26 03:38:16;;;;;;;21.45;4.10;;;10.70;81.30;;;;;;5045261;28;20028;-59
2024/03/26 03:40:42;;;;;;;12.98;4.15;;;10.70;81.30;;;;;;5046098;28;20057;-59
2024/03/26 03:43:07;;;;;;;14.90;3.47;;;10.70;81.30;;;;;;5046372;28;20227;-59
2024/03/26 03:45:33;;;;;;;13.32;3.55;;;10.70;81.50;;;;;;5046335;28;20508;-60
2024/03/26 03:47:59;;;;;;;17.38;3.60;;;10.70;81.50;;;;;;5046651;28;20085;-59
2024/03/26 03:50:24;;;;;;;14.57;3.60;;;10.70;81.50;;;;;;5044884;28;20116;-59
2024/03/26 03:52:50;;;;;;;15.80;3.67;;;10.60;81.40;;;;;;5044881;28;20109;-62
2024/03/26 03:55:15;;;;;;;16.63;4.07;;;10.60;81.60;;;;;;5046264;28;20108;-59
2024/03/26 03:57:41;;;;;;;9.43;3.63;;;10.60;81.50;;;;;;5044878;28;20143;-59
2024/03/26 04:00:08;;;;;;;14.57;4.28;;;10.60;81.70;;;;;;5044652;28;20048;-59
2024/03/26 04:02:33;;;;;;;13.48;3.33;;;10.60;81.50;;;;;;5044740;28;20022;-59
2024/03/26 04:04:59;;;;;;;21.95;4.88;;;10.60;81.70;;;;;;5044571;28;20360;-59
2024/03/26 04:07:24;;;;;;;14.15;3.35;;;10.60;81.70;;;;;;5044560;28;20133;-59
2024/03/26 04:09:53;;;;;;;15.43;3.70;;;10.60;81.70;;;;;;5044534;28;20056;-59
2024/03/26 04:12:19;;;;;;;9.10;2.90;;;10.60;81.80;;;;;;5044619;28;20106;-59
2024/03/26 04:14:45;;;;;;;12.57;4.13;;;10.50;81.70;;;;;;5044581;28;20041;-59
2024/03/26 04:17:10;;;;;;;12.13;3.53;;;10.50;81.90;;;;;;5027880;28;20044;-59
2024/03/26 04:19:36;;;;;;;10.48;3.30;;;10.50;81.90;;;;;;5043303;28;20037;-59
2024/03/26 04:22:02;;;;;;;16.05;3.30;;;10.50;82.00;;;;;;5045554;28;20017;-59
2024/03/26 04:24:27;;;;;;;13.23;3.67;;;10.50;81.90;;;;;;5044168;28;20033;-59
2024/03/26 04:26:53;;;;;;;14.90;3.58;;;10.50;82.00;;;;;;5044218;28;20112;-59
2024/03/26 04:29:18;;;;;;;7.50;3.10;;;10.50;81.90;;;;;;5044181;28;20169;-59
2024/03/26 04:31:44;;;;;;;11.10;2.90;;;10.50;82.10;;;;;;5044163;28;20068;-59
2024/03/26 04:34:10;;;;;;;11.70;2.88;;;10.50;82.10;;;;;;5044052;28;20117;-59
2024/03/26 04:36:36;;;;;;;10.32;3.13;;;10.50;82.00;;;;;;5043923;28;20087;-59
2024/03/26 04:39:03;;;;;;;11.57;3.05;;;10.50;82.10;;;;;;5045207;28;20030;-59
2024/03/26 04:41:28;;;;;;;14.43;2.55;;;10.40;81.90;;;;;;5044172;28;20074;-59
2024/03/26 04:43:54;;;;;;;12.20;3.30;;;10.40;81.80;;;;;;5027357;28;20167;-59
2024/03/26 04:46:19;;;;;;;11.65;2.97;;;10.40;81.90;;;;;;5045379;28;20085;-59
2024/03/26 04:48:45;;;;;;;14.70;3.00;;;10.40;81.90;;;;;;5044125;28;20104;-59
2024/03/26 04:51:11;;;;;;;11.45;3.33;;;10.40;81.90;;;;;;5043879;28;20089;-59
2024/03/26 04:53:36;;;;;;;11.50;2.85;;;10.40;82.00;;;;;;5043887;28;20033;-59
2024/03/26 04:56:02;;;;;;;13.70;2.88;;;10.40;82.10;;;;;;5027176;28;20029;-61
2024/03/26 04:58:28;;;;;;;11.18;3.13;;;10.40;82.10;;;;;;5043582;28;20083;-59
2024/03/26 05:00:53;;;;;;;9.75;2.95;;;10.40;82.00;;;;;;5043773;28;20045;-59
2024/03/26 05:03:19;;;;;;;7.88;2.55;;;10.30;82.10;;;;;;5045095;28;20025;-59
2024/03/26 05:05:44;;;;;;;9.75;3.17;;;10.30;81.90;;;;;;5043614;28;20042;-59
2024/03/26 05:08:10;;;;;;;10.60;2.75;;;10.30;82.00;;;;;;5043590;28;20073;-59
2024/03/26 05:10:35;;;;;;;9.50;3.00;;;10.30;82.20;;;;;;5044897;28;20069;-59
2024/03/26 05:13:01;;;;;;;8.50;3.00;;;10.30;82.20;;;;;;5043585;28;20038;-59
2024/03/26 05:15:27;;;;;;;8.50;2.35;;;10.30;82.20;;;;;;5043517;28;20440;-59
2024/03/26 05:17:52;;;;;;;8.48;2.88;;;10.30;82.10;;;;;;5043517;28;20112;-59
2024/03/26 05:20:18;;;;;;;9.65;2.72;;;10.30;82.10;;;;;;5043442;28;20076;-59
2024/03/26 05:22:44;;;;;;;7.38;2.40;;;10.30;82.10;;;;;;5043249;28;20552;-59
2024/03/26 05:25:10;;;;;;;6.22;2.53;;;10.30;82.10;;;;;;5044767;28;20044;-59
2024/03/26 05:27:35;;;;;;;11.30;2.60;;;10.20;82.10;;;;;;5044713;28;20025;-59
2024/03/26 05:30:01;;;;;;;17.75;3.58;;;10.20;82.10;;;;;;5042990;28;20033;-59
2024/03/26 05:32:27;;;;;;;18.40;3.72;;;10.20;82.10;;;;;;5043204;28;20029;-59
2024/03/26 05:34:52;;;;;;;18.27;3.28;;;10.20;82.10;;;;;;5044540;28;20459;-59
2024/03/26 05:37:19;;;;;;;17.00;3.70;;;10.20;82.10;;;;;;5043163;28;20037;-59
2024/03/26 05:39:45;;;;;;;15.93;3.05;;;10.20;82.20;;;;;;5043089;28;20033;-59
2024/03/26 05:42:12;;;;;;;17.33;3.08;;;10.20;82.10;;;;;;5042958;28;20388;-59
2024/03/26 05:44:37;;;;;;;24.65;4.05;;;10.20;82.10;;;;;;5044416;28;20035;-59
2024/03/26 05:47:03;;;;;;;17.23;3.70;;;10.20;82.10;;;;;;5042987;28;20030;-59
2024/03/26 05:49:29;;;;;;;17.45;4.22;;;10.20;82.10;;;;;;5042959;28;20029;-58
2024/03/26 05:51:54;;;;;;;20.50;4.10;;;10.20;81.90;;;;;;5043159;28;20026;-59
2024/03/26 05:54:20;;;;;;;22.10;4.15;;;10.20;81.90;;;;;;5042898;28;20026;-59
2024/03/26 05:56:45;;;;;;;22.90;4.07;;;10.20;82.00;;;;;;5042760;28;20030;-59
2024/03/26 05:59:11;;;;;;;19.60;4.63;;;10.20;82.10;;;;;;5043032;28;20033;-59
2024/03/26 06:01:37;;;;;;;20.02;4.25;;;10.20;82.10;;;;;;5044085;28;20029;-59
2024/03/26 06:04:03;;;;;;;26.42;4.88;;;10.20;82.20;;;;;;5042869;28;20041;-59
2024/03/26 06:06:28;;;;;;;20.33;4.40;;;10.20;82.20;;;;;;5044023;28;20018;-59
2024/03/26 06:08:54;;;;;;;24.67;4.07;;;10.20;82.30;;;;;;5044695;28;20077;-59
2024/03/26 06:11:20;;;;;;;26.27;4.50;;;10.20;82.30;;;;;;5043228;28;20055;-59
2024/03/26 06:13:45;;;;;;;28.75;4.97;;;10.20;82.30;;;;;;5026395;28;20421;-59
2024/03/26 06:16:11;;;;;;;25.88;5.13;;;10.20;82.30;;;;;;5044470;28;20033;-59
2024/03/26 06:18:37;;;;;;;29.95;5.00;;;10.20;82.40;;;;;;5042947;28;20025;-59
2024/03/26 06:21:04;;;;;;;33.83;6.15;;;10.20;82.60;;;;;;5042663;28;20037;-59
2024/03/26 06:23:30;;;;;;;28.00;5.35;;;10.20;82.60;;;;;;5042805;28;20120;-59
2024/03/26 06:25:55;;;;;;;29.17;5.50;;;10.20;82.60;;;;;;5042305;28;20109;-59
2024/03/26 06:28:21;;;;;;;46.83;5.95;;;10.20;82.60;;;;;;5043924;28;20029;-59
2024/03/26 06:30:47;;;;;;;57.40;6.63;;;10.20;82.60;;;;;;5042746;28;20029;-59
2024/03/26 06:33:14;;;;;;;38.08;6.93;;;10.20;82.70;;;;;;5043619;28;20036;-59
2024/03/26 06:35:39;;;;;;;30.40;6.00;;;10.20;82.70;;;;;;5042322;28;20041;-59
2024/03/26 06:38:05;;;;;;;39.42;6.68;;;10.10;82.70;;;;;;5042433;28;20060;-59
2024/03/26 06:40:31;;;;;;;35.83;6.15;;;10.20;82.70;;;;;;5043456;28;20033;-59
2024/03/26 06:42:57;;;;;;;49.50;6.75;;;10.10;82.70;;;;;;5043047;28;20373;-59
2024/03/26 06:45:23;;;;;;;46.30;8.05;;;10.10;82.60;;;;;;5045959;28;20032;-59
2024/03/26 06:47:48;;;;;;;44.15;7.35;;;10.10;82.60;;;;;;5047489;28;20425;-59
2024/03/26 06:50:14;;;;;;;46.25;6.30;;;10.10;82.60;;;;;;5047406;28;20025;-59
2024/03/26 06:52:39;;;;;;;60.13;8.43;;;10.20;82.70;;;;;;5047309;28;20084;-59
2024/03/26 06:55:06;;;;;;;45.47;6.65;;;10.20;82.70;;;;;;5046216;28;20032;-59
2024/03/26 06:57:31;;;;;;;37.17;7.53;;;10.10;82.70;;;;;;5046013;28;20029;-59
2024/03/26 06:59:58;;;;;;;43.53;7.10;;;10.10;82.70;;;;;;5046199;28;20048;-59
2024/03/26 07:02:24;;;;;;;33.78;5.55;;;10.10;82.70;;;;;;5046320;28;20052;-59
2024/03/26 07:04:50;;;;;;;39.55;6.40;;;10.20;82.70;;;;;;5045946;28;20029;-59
2024/03/26 07:07:15;;;;;;;37.90;6.55;;;10.10;82.60;;;;;;5029602;28;20048;-59
2024/03/26 07:09:41;;;;;;;28.17;6.40;;;10.10;82.60;;;;;;5045888;28;20033;-59
2024/03/26 07:12:07;;;;;;;33.90;7.43;;;10.20;82.60;;;;;;5047341;28;20116;-59
2024/03/26 07:14:33;;;;;;;47.45;6.80;;;10.10;82.50;;;;;;5047439;28;20472;-61
2024/03/26 07:16:59;;;;;;;36.63;6.35;;;10.20;82.50;;;;;;5047325;28;20030;-59
2024/03/26 07:19:25;;;;;;;27.70;6.15;;;10.20;82.40;;;;;;5045768;28;20026;-59
2024/03/26 07:21:50;;;;;;;34.58;6.65;;;10.10;82.40;;;;;;5045763;28;20030;-59
2024/03/26 07:24:16;;;;;;;31.75;6.38;;;10.20;82.40;;;;;;5045752;28;20029;-59
2024/03/26 07:26:42;;;;;;;37.92;6.20;;;10.20;82.40;;;;;;5047357;28;20028;-59
2024/03/26 07:29:07;;;;;;;30.48;6.28;;;10.20;82.40;;;;;;5046837;28;20077;-59
2024/03/26 07:31:33;;;;;;;23.67;5.45;;;10.20;82.40;;;;;;5048512;28;20051;-59
2024/03/26 07:33:59;;;;;;;35.83;6.03;;;10.20;82.50;;;;;;5051675;28;20036;-59
2024/03/26 07:36:24;;;;;;;27.35;6.78;;;10.20;82.40;;;;;;5066411;28;20033;-59
2024/03/26 07:38:50;;;;;;;44.20;6.78;;;10.20;82.40;;;;;;5046638;28;20033;-59
2024/03/26 07:41:18;;;;;;;33.95;5.93;;;10.20;82.30;;;;;;5047919;28;20037;-59
2024/03/26 07:43:43;;;;;;;23.98;5.70;;;10.20;82.30;;;;;;5049514;28;20380;-58
2024/03/26 07:46:09;;;;;;;54.13;7.90;;;10.20;83.00;;;;;;5064678;28;20036;-59
2024/03/26 07:48:35;;;;;;;83.13;8.65;;;10.30;82.30;;;;;;5063843;28;20021;-59
2024/03/26 07:51:04;;;;;;;46.60;6.53;;;10.20;82.30;;;;;;5067851;28;20020;-59
2024/03/26 07:53:30;;;;;;;37.85;6.28;;;10.20;82.10;;;;;;5074637;28;20032;-59
2024/03/26 07:55:56;;;;;;;44.75;6.47;;;10.30;82.20;;;;;;5068878;28;20454;-59
2024/03/26 07:58:22;;;;;;;27.17;6.03;;;10.30;82.20;;;;;;5063957;28;20068;-59
2024/03/26 08:00:47;;;;;;;36.97;6.05;;;10.30;82.90;;;;;;5068485;28;20029;-59
2024/03/26 08:03:13;;;;;;;34.40;5.20;;;10.30;82.10;;;;;;5080168;28;20071;-59
2024/03/26 08:05:40;;;;;;;37.47;7.15;;;10.30;82.00;;;;;;5072634;28;20029;-59
2024/03/26 08:08:06;;;;;;;28.73;5.68;;;10.40;82.00;;;;;;5074347;28;20037;-59
2024/03/26 08:10:31;;;;;;;37.50;6.32;;;10.40;82.00;;;;;;5079805;28;20030;-59
2024/03/26 08:12:57;;;;;;;29.17;5.88;;;10.40;81.90;;;;;;5063086;28;20043;-58
2024/03/26 08:15:23;;;;;;;38.25;5.78;;;10.40;82.10;;;;;;5080029;28;20036;-59
2024/03/26 08:17:48;;;;;;;43.78;6.35;;;10.40;82.10;;;;;;5074750;28;20032;-59
2024/03/26 08:20:14;;;;;;;43.40;6.80;;;10.40;82.10;;;;;;5052226;28;20033;-59
2024/03/26 08:22:39;;;;;;;30.58;5.63;;;10.40;82.10;;;;;;5061711;28;20036;-59
2024/03/26 08:25:05;;;;;;;46.67;8.25;;;10.50;82.00;;;;;;5065528;28;20128;-59
2024/03/26 08:27:34;;;;;;;80.80;10.20;;;10.40;81.90;;;;;;5040071;28;20056;-59
2024/03/26 08:30:00;;;;;;;87.82;11.20;;;10.50;82.00;;;;;;5063113;28;20056;-59
2024/03/26 08:32:26;;;;;;;67.72;8.60;;;10.50;81.90;;;;;;5052856;28;20036;-59
2024/03/26 08:34:51;;;;;;;66.50;9.70;;;10.50;81.80;;;;;;5046608;28;20029;-59
2024/03/26 08:37:17;;;;;;;79.60;8.98;;;10.50;81.90;;;;;;5065119;28;20052;-59
2024/03/26 08:39:42;;;;;;;67.38;8.50;;;10.50;81.80;;;;;;5058196;28;20101;-59
2024/03/26 08:42:09;;;;;;;185.60;20.38;;;10.50;81.80;;;;;;5057419;28;20112;-59
2024/03/26 08:44:34;;;;;;;99.93;12.50;;;10.60;81.90;;;;;;5085025;28;20040;-59
2024/03/26 08:47:00;;;;;;;106.38;13.15;;;10.60;81.90;;;;;;5064717;28;20036;-59
2024/03/26 08:49:26;;;;;;;93.50;12.55;;;10.60;82.70;;;;;;5069854;28;20024;-58
2024/03/26 08:51:52;;;;;;;113.45;13.20;;;10.60;82.00;;;;;;5065435;28;20440;-58
2024/03/26 08:54:17;;;;;;;83.55;9.80;;;10.60;82.00;;;;;;5052878;28;20025;-59
2024/03/26 08:56:43;;;;;;;77.75;11.63;;;10.70;82.00;;;;;;5068731;28;20087;-59
2024/03/26 08:59:09;;;;;;;92.72;11.20;;;10.70;81.90;;;;;;5070231;28;20052;-60
2024/03/26 09:01:34;;;;;;;122.50;15.68;;;10.70;81.90;;;;;;5068351;28;20067;-59
2024/03/26 09:04:00;;;;;;;84.85;12.38;;;10.70;81.80;;;;;;5061766;28;20017;-59
2024/03/26 09:06:25;;;;;;;78.57;10.18;;;10.80;81.80;;;;;;5061786;28;20097;-58
2024/03/26 09:08:51;;;;;;;115.53;15.82;;;10.80;81.80;;;;;;5064168;28;20431;-59
2024/03/26 09:11:18;;;;;;;108.85;11.77;;;10.80;81.70;;;;;;5058129;28;20039;-59
2024/03/26 09:13:44;;;;;;;82.40;10.45;;;10.90;82.50;;;;;;5056821;28;20064;-59
2024/03/26 09:16:10;;;;;;;85.88;10.85;;;10.90;81.70;;;;;;5060650;28;20029;-60
2024/03/26 09:18:36;;;;;;;110.07;13.10;;;10.90;81.80;;;;;;5061948;28;20036;-59
2024/03/26 09:21:02;;;;;;;106.03;14.32;;;10.90;81.70;;;;;;5060216;28;20025;-59
2024/03/26 09:23:28;;;;;;;114.45;14.43;;;11.00;81.80;;;;;;5064662;28;20037;-59
2024/03/26 09:25:53;;;;;;;163.07;17.33;;;11.00;81.70;;;;;;5050388;28;20084;-58
2024/03/26 09:28:20;;;;;;;132.30;15.40;;;11.10;81.90;;;;;;5061959;28;20021;-59
2024/03/26 09:30:50;;;;;;;152.48;17.88;;;11.10;81.80;;;;;;5062160;28;20032;-59
2024/03/26 09:33:17;;;;;;;113.78;14.35;;;11.10;81.80;;;;;;5043000;28;20037;-59
2024/03/26 09:35:42;;;;;;;107.82;13.25;;;11.20;81.90;;;;;;5045851;28;20057;-59
2024/03/26 09:38:08;;;;;;;118.65;15.15;;;11.20;81.90;;;;;;5069783;28;20095;-59
2024/03/26 09:40:38;;;;;;;116.53;14.52;;;11.30;82.00;;;;;;5050244;28;20155;-59
2024/03/26 09:43:07;;;;;;;230.00;26.58;;;11.30;82.20;;;;;;5069874;28;20033;-60
2024/03/26 09:45:34;;;;;;;261.38;25.55;;;11.40;82.40;;;;;;5067090;28;20025;-59
2024/03/26 09:48:00;;;;;;;176.00;15.90;;;11.40;82.50;;;;;;5048515;28;20146;-59
2024/03/26 09:50:28;;;;;;;161.32;17.30;;;11.40;82.10;;;;;;5061705;28;20033;-59
2024/03/26 09:52:55;;;;;;;149.77;18.10;;;11.50;81.70;;;;;;5040895;28;20033;-59
2024/03/26 09:55:20;;;;;;;155.52;19.45;;;11.50;81.50;;;;;;5061481;28;20021;-60
2024/03/26 09:57:46;;;;;;;160.70;17.48;;;11.60;81.50;;;;;;5048037;28;20029;-59
2024/03/26 10:00:12;;;;;;;217.38;22.73;;;11.60;81.80;;;;;;5062295;28;20097;-60
2024/03/26 10:02:38;;;;;;;155.65;18.65;;;11.60;81.50;;;;;;5062898;28;20101;-59
2024/03/26 10:05:06;;;;;;;192.40;23.52;;;11.70;81.70;;;;;;5049335;28;20704;-59
2024/03/26 10:07:32;;;;;;;202.18;20.17;;;11.70;81.90;;;;;;5061234;28;20055;-59
2024/03/26 10:10:00;;;;;;;171.57;19.63;;;11.80;82.00;;;;;;5054386;28;20025;-59
2024/03/26 10:12:25;;;;;;;185.40;18.48;;;11.80;82.00;;;;;;5063036;28;20054;-59
2024/03/26 10:14:51;;;;;;;162.75;19.80;;;11.90;82.10;;;;;;5064821;28;20520;-59
2024/03/26 10:17:16;;;;;;;261.70;26.75;;;11.90;82.30;;;;;;5061514;28;20036;-59
2024/03/26 10:19:42;;;;;;;175.00;23.00;;;12.00;82.30;;;;;;5064142;28;20043;-59
2024/03/26 10:22:16;;;;;;;174.60;21.10;;;12.00;82.10;;;;;;5065201;28;20037;-59
2024/03/26 10:24:42;;;;;;;182.60;20.08;;;12.00;82.00;;;;;;5064987;28;20025;-59
2024/03/26 10:27:08;;;;;;;151.95;18.77;;;12.10;82.20;;;;;;5066196;28;20033;-59
2024/03/26 10:29:36;;;;;;;155.70;18.75;;;12.10;82.30;;;;;;5040009;28;20056;-60
2024/03/26 10:32:01;;;;;;;128.27;16.38;;;12.20;82.10;;;;;;5068842;28;20047;-59
2024/03/26 10:34:27;;;;;;;131.60;16.05;;;12.20;81.80;;;;;;5052283;28;20028;-59
2024/03/26 10:36:53;;;;;;;122.68;15.00;;;12.30;81.70;;;;;;5045820;28;20039;-59
2024/03/26 10:39:19;;;;;;;147.73;16.65;;;12.30;82.60;;;;;;5043910;28;20029;-59
2024/03/26 10:41:44;;;;;;;115.50;14.10;;;12.30;82.40;;;;;;5051097;28;20119;-59
2024/03/26 10:44:10;;;;;;;86.05;12.85;;;12.40;82.60;;;;;;5060560;28;20024;-59
2024/03/26 10:46:36;;;;;;;98.13;11.13;;;12.40;82.50;;;;;;5044546;28;20036;-59
2024/03/26 10:49:01;;;;;;;88.80;11.48;;;12.50;82.80;;;;;;5046091;28;20013;-59
2024/03/26 10:51:28;;;;;;;76.45;10.73;;;12.50;82.50;;;;;;5063910;28;20029;-59
2024/03/26 10:53:57;;;;;;;89.32;11.65;;;12.50;82.40;;;;;;5043019;28;20028;-59
2024/03/26 10:56:25;;;;;;;97.38;12.95;;;12.60;82.30;;;;;;5060213;28;20037;-59
2024/03/26 10:58:51;;;;;;;119.20;13.85;;;12.60;82.00;;;;;;5058360;28;20028;-59
2024/03/26 11:01:17;;;;;;;117.13;14.18;;;12.60;82.10;;;;;;5043118;28;20029;-59
2024/03/26 11:03:42;;;;;;;91.78;14.38;;;12.70;82.10;;;;;;5051791;28;20081;-59
2024/03/26 11:06:08;;;;;;;106.82;12.02;;;12.70;81.90;;;;;;5050390;28;20429;-59
2024/03/26 11:08:40;;;;;;;55.38;9.35;;;12.80;81.60;;;;;;5040838;28;20055;-59
2024/03/26 11:11:06;;;;;;;68.65;11.30;;;12.80;81.50;;;;;;5042230;28;20079;-61
2024/03/26 11:13:33;;;;;;;73.60;9.07;;;12.80;81.40;;;;;;5057179;28;20046;-60
2024/03/26 11:16:03;;;;;;;71.32;8.85;;;12.90;81.50;;;;;;5044121;28;20036;-59
2024/03/26 11:18:32;;;;;;;70.35;11.05;;;13.00;81.40;;;;;;5050577;28;20037;-59
2024/03/26 11:21:08;;;;;;;86.50;12.95;;;13.00;81.30;;;;;;5028782;28;20087;-60
2024/03/26 11:23:43;;;;;;;117.00;13.90;;;13.10;81.50;;;;;;5047936;28;20044;-59
2024/03/26 11:26:23;;;;;;;104.90;13.15;;;13.20;81.80;;;;;;5062579;28;20519;-60
2024/03/26 11:28:49;;;;;;;96.38;12.73;;;13.20;81.90;;;;;;5033419;28;20156;-60
2024/03/26 11:31:14;;;;;;;157.98;16.73;;;13.30;81.90;;;;;;5049301;28;20131;-59
2024/03/26 11:33:40;;;;;;;186.35;20.45;;;13.30;81.80;;;;;;5059450;28;20556;-59
2024/03/26 11:36:09;;;;;;;120.75;14.30;;;13.30;82.10;;;;;;5038064;28;20135;-60
2024/03/26 11:38:34;;;;;;;170.32;18.80;;;13.40;82.00;;;;;;5040963;28;20025;-59
2024/03/26 11:41:00;;;;;;;80.75;10.65;;;13.40;82.00;;;;;;5037131;28;20029;-59
2024/03/26 11:43:26;;;;;;;105.82;13.60;;;13.40;81.70;;;;;;5048018;28;20325;-60
2024/03/26 11:45:51;;;;;;;138.82;15.68;;;13.50;81.80;;;;;;5045620;28;20021;-59
2024/03/26 11:48:17;;;;;;;117.93;15.10;;;13.50;82.00;;;;;;5045669;28;20028;-59
2024/03/26 11:50:43;;;;;;;147.70;15.90;;;13.60;82.00;;;;;;5045844;28;20027;-59
2024/03/26 11:53:09;;;;;;;122.28;17.02;;;13.60;81.80;;;;;;5049180;28;20048;-57
2024/03/26 11:55:35;;;;;;;124.30;13.30;;;13.70;82.10;;;;;;5043467;28;20017;-58
2024/03/26 11:58:00;;;;;;;167.77;17.33;;;13.70;81.90;;;;;;5044620;28;20043;-57
2024/03/26 12:00:26;;;;;;;101.97;14.07;;;13.80;81.60;;;;;;5016356;28;20406;-57
2024/03/26 12:02:52;;;;;;;137.07;13.98;;;13.80;81.60;;;;;;5033490;28;20049;-58
2024/03/26 12:05:17;;;;;;;118.65;14.25;;;13.80;81.30;;;;;;5038017;28;20021;-58
2024/03/26 12:07:43;;;;;;;150.52;15.10;;;14.00;81.20;;;;;;5039677;28;20029;-57
2024/03/26 12:10:10;;;;;;;112.32;12.68;;;14.00;80.70;;;;;;5027923;28;20078;-57
2024/03/26 12:12:38;;;;;;;110.75;14.02;;;14.00;80.60;;;;;;5048643;28;21166;-57
2024/03/26 12:15:05;;;;;;;99.95;12.55;;;14.10;80.50;;;;;;5035373;28;20124;-57
2024/03/26 12:17:31;;;;;;;96.97;11.77;;;14.10;80.10;;;;;;5045412;28;20174;-57
2024/03/26 12:19:57;;;;;;;105.90;12.57;;;14.20;80.20;;;;;;5061357;28;20124;-57
2024/03/26 12:22:23;;;;;;;101.28;13.68;;;14.20;80.30;;;;;;5065583;28;20036;-57
2024/03/26 12:24:49;;;;;;;90.32;11.57;;;14.30;80.40;;;;;;5016950;28;20036;-57